sensor_id;sensor_type;location;lat;lon;timestamp;pressure;altitude;pressure_sealevel;temperature
8362;BMP180;4218;48.326;14.304;2023-02-28T00:24:20;99153.00;;;-0.30
8362;BMP180;4218;48.326;14.304;2023-02-28T00:26:52;99126.00;;;-0.30
8362;BMP180;4218;48.326;14.304;2023-02-28T00:29:17;99138.00;;;-0.40
8362;BMP180;4218;48.326;14.304;2023-02-28T00:31:46;99137.00;;;-0.40
8362;BMP180;4218;48.326;14.304;2023-02-28T00:34:11;99130.00;;;-0.40
8362;BMP180;4218;48.326;14.304;2023-02-28T00:36:37;99137.00;;;-0.30
8362;BMP180;4218;48.326;14.304;2023-02-28T00:39:03;99144.00;;;-0.30
8362;BMP180;4218;48.326;14.304;2023-02-28T00:41:30;99131.00;;;-0.40
8362;BMP180;4218;48.326;14.304;2023-02-28T00:43:58;99140.00;;;-0.40
8362;BMP180;4218;48.326;14.304;2023-02-28T00:46:32;99144.00;;;-0.40
8362;BMP180;4218;48.326;14.304;2023-02-28T00:49:03;99129.00;;;-0.40
8362;BMP180;4218;48.326;14.304;2023-02-28T00:51:40;99130.00;;;-0.50
8362;BMP180;4218;48.326;14.304;2023-02-28T01:02:17;99124.00;;;-0.60
8362;BMP180;4218;48.326;14.304;2023-02-28T01:30:08;99102.00;;;-0.40
8362;BMP180;4218;48.326;14.304;2023-02-28T01:32:42;99091.00;;;-0.50
8362;BMP180;4218;48.326;14.304;2023-02-28T01:35:15;99090.00;;;-0.50
8362;BMP180;4218;48.326;14.304;2023-02-28T01:37:43;99098.00;;;-0.50
8362;BMP180;4218;48.326;14.304;2023-02-28T01:40:08;99086.00;;;-0.50
8362;BMP180;4218;48.326;14.304;2023-02-28T01:42:46;99089.00;;;-0.50
8362;BMP180;4218;48.326;14.304;2023-02-28T01:45:23;99095.00;;;-0.60
8362;BMP180;4218;48.326;14.304;2023-02-28T01:47:53;99093.00;;;-0.60
8362;BMP180;4218;48.326;14.304;2023-02-28T01:50:29;99077.00;;;-0.60
8362;BMP180;4218;48.326;14.304;2023-02-28T01:53:02;99093.00;;;-0.60
8362;BMP180;4218;48.326;14.304;2023-02-28T01:55:30;99072.00;;;-0.60
8362;BMP180;4218;48.326;14.304;2023-02-28T01:57:58;99075.00;;;-0.60
8362;BMP180;4218;48.326;14.304;2023-02-28T02:00:28;99071.00;;;-0.50
8362;BMP180;4218;48.326;14.304;2023-02-28T02:03:07;99060.00;;;-0.50
8362;BMP180;4218;48.326;14.304;2023-02-28T02:05:40;99069.00;;;-0.50
8362;BMP180;4218;48.326;14.304;2023-02-28T02:08:12;99063.00;;;-0.90
8362;BMP180;4218;48.326;14.304;2023-02-28T02:10:47;99066.00;;;-0.70
8362;BMP180;4218;48.326;14.304;2023-02-28T02:16:13;99062.00;;;-0.70
8362;BMP180;4218;48.326;14.304;2023-02-28T02:18:54;99066.00;;;-0.70
8362;BMP180;4218;48.326;14.304;2023-02-28T02:27:46;99047.00;;;-0.60
8362;BMP180;4218;48.326;14.304;2023-02-28T02:30:30;99055.00;;;-0.60
8362;BMP180;4218;48.326;14.304;2023-02-28T02:36:24;99040.00;;;-0.60
8362;BMP180;4218;48.326;14.304;2023-02-28T02:41:53;99038.00;;;-0.70
8362;BMP180;4218;48.326;14.304;2023-02-28T02:44:25;99038.00;;;-0.60
8362;BMP180;4218;48.326;14.304;2023-02-28T02:46:57;99053.00;;;-0.60
8362;BMP180;4218;48.326;14.304;2023-02-28T02:49:32;99052.00;;;-0.60
8362;BMP180;4218;48.326;14.304;2023-02-28T02:52:04;99032.00;;;-0.70
8362;BMP180;4218;48.326;14.304;2023-02-28T02:54:38;99038.00;;;-0.70
8362;BMP180;4218;48.326;14.304;2023-02-28T02:57:13;99051.00;;;-0.60
8362;BMP180;4218;48.326;14.304;2023-02-28T02:59:44;99043.00;;;-0.70
8362;BMP180;4218;48.326;14.304;2023-02-28T03:02:16;99024.00;;;-0.70
8362;BMP180;4218;48.326;14.304;2023-02-28T03:04:52;99034.00;;;-0.70
8362;BMP180;4218;48.326;14.304;2023-02-28T03:07:19;99030.00;;;-0.70
8362;BMP180;4218;48.326;14.304;2023-02-28T03:09:52;99039.00;;;-0.70
8362;BMP180;4218;48.326;14.304;2023-02-28T03:12:23;99044.00;;;-0.80
8362;BMP180;4218;48.326;14.304;2023-02-28T03:23:19;99050.00;;;-0.80
8362;BMP180;4218;48.326;14.304;2023-02-28T03:26:03;99022.00;;;-0.80
8362;BMP180;4218;48.326;14.304;2023-02-28T03:31:55;99038.00;;;-0.70
8362;BMP180;4218;48.326;14.304;2023-02-28T03:34:38;99033.00;;;-0.80
8362;BMP180;4218;48.326;14.304;2023-02-28T03:37:16;99039.00;;;-0.70
8362;BMP180;4218;48.326;14.304;2023-02-28T03:40:05;99033.00;;;-0.90
8362;BMP180;4218;48.326;14.304;2023-02-28T03:42:36;99028.00;;;-0.90
8362;BMP180;4218;48.326;14.304;2023-02-28T03:45:22;99025.00;;;-0.80
8362;BMP180;4218;48.326;14.304;2023-02-28T03:47:53;99024.00;;;-0.90
8362;BMP180;4218;48.326;14.304;2023-02-28T03:50:26;99018.00;;;-0.80
8362;BMP180;4218;48.326;14.304;2023-02-28T03:53:01;99026.00;;;-0.90
8362;BMP180;4218;48.326;14.304;2023-02-28T03:55:34;99025.00;;;-0.90
8362;BMP180;4218;48.326;14.304;2023-02-28T03:58:21;99025.00;;;-1.10
8362;BMP180;4218;48.326;14.304;2023-02-28T04:00:56;99036.00;;;-1.10
8362;BMP180;4218;48.326;14.304;2023-02-28T04:03:24;99026.00;;;-0.90
8362;BMP180;4218;48.326;14.304;2023-02-28T04:05:52;99022.00;;;-1.00
8362;BMP180;4218;48.326;14.304;2023-02-28T04:08:19;99017.00;;;-0.90
8362;BMP180;4218;48.326;14.304;2023-02-28T04:11:05;99036.00;;;-0.90
8362;BMP180;4218;48.326;14.304;2023-02-28T04:13:35;99038.00;;;-0.90
8362;BMP180;4218;48.326;14.304;2023-02-28T04:16:12;99027.00;;;-0.90
8362;BMP180;4218;48.326;14.304;2023-02-28T04:18:41;99018.00;;;-1.10
8362;BMP180;4218;48.326;14.304;2023-02-28T04:21:11;99027.00;;;-1.10
8362;BMP180;4218;48.326;14.304;2023-02-28T04:23:37;99020.00;;;-1.00
8362;BMP180;4218;48.326;14.304;2023-02-28T04:26:02;99010.00;;;-1.20
8362;BMP180;4218;48.326;14.304;2023-02-28T04:28:29;99015.00;;;-1.20
8362;BMP180;4218;48.326;14.304;2023-02-28T04:31:02;99017.00;;;-1.00
8362;BMP180;4218;48.326;14.304;2023-02-28T04:33:28;99018.00;;;-1.00
8362;BMP180;4218;48.326;14.304;2023-02-28T04:36:07;99030.00;;;-0.90
8362;BMP180;4218;48.326;14.304;2023-02-28T04:38:37;99008.00;;;-1.20
8362;BMP180;4218;48.326;14.304;2023-02-28T04:41:07;99011.00;;;-1.30
8362;BMP180;4218;48.326;14.304;2023-02-28T04:43:41;99030.00;;;-1.20
8362;BMP180;4218;48.326;14.304;2023-02-28T04:46:09;99019.00;;;-1.00
8362;BMP180;4218;48.326;14.304;2023-02-28T04:48:37;99020.00;;;-0.90
8362;BMP180;4218;48.326;14.304;2023-02-28T04:51:10;99020.00;;;-0.80
8362;BMP180;4218;48.326;14.304;2023-02-28T04:53:43;99025.00;;;-0.90
8362;BMP180;4218;48.326;14.304;2023-02-28T04:56:12;99030.00;;;-1.00
8362;BMP180;4218;48.326;14.304;2023-02-28T04:58:40;99019.00;;;-0.90
8362;BMP180;4218;48.326;14.304;2023-02-28T05:03:45;99034.00;;;-0.90
8362;BMP180;4218;48.326;14.304;2023-02-28T05:06:12;99019.00;;;-1.00
8362;BMP180;4218;48.326;14.304;2023-02-28T05:08:39;99022.00;;;-1.00
8362;BMP180;4218;48.326;14.304;2023-02-28T05:11:26;99036.00;;;-0.80
8362;BMP180;4218;48.326;14.304;2023-02-28T05:13:56;99021.00;;;-0.90
8362;BMP180;4218;48.326;14.304;2023-02-28T05:16:29;99017.00;;;-1.00
8362;BMP180;4218;48.326;14.304;2023-02-28T05:19:00;99020.00;;;-0.90
8362;BMP180;4218;48.326;14.304;2023-02-28T05:21:35;99024.00;;;-0.90
8362;BMP180;4218;48.326;14.304;2023-02-28T05:24:08;99027.00;;;-0.90
8362;BMP180;4218;48.326;14.304;2023-02-28T05:26:35;99024.00;;;-1.00
8362;BMP180;4218;48.326;14.304;2023-02-28T05:29:01;99015.00;;;-0.90
8362;BMP180;4218;48.326;14.304;2023-02-28T05:31:27;99017.00;;;-0.90
8362;BMP180;4218;48.326;14.304;2023-02-28T05:33:52;99015.00;;;-0.90
8362;BMP180;4218;48.326;14.304;2023-02-28T05:36:23;99025.00;;;-1.00
8362;BMP180;4218;48.326;14.304;2023-02-28T05:38:51;99023.00;;;-1.00
8362;BMP180;4218;48.326;14.304;2023-02-28T05:41:20;99017.00;;;-0.90
8362;BMP180;4218;48.326;14.304;2023-02-28T05:43:46;99018.00;;;-0.90
8362;BMP180;4218;48.326;14.304;2023-02-28T05:46:13;99013.00;;;-1.00
8362;BMP180;4218;48.326;14.304;2023-02-28T05:48:40;99031.00;;;-1.00
8362;BMP180;4218;48.326;14.304;2023-02-28T05:51:07;99015.00;;;-1.20
8362;BMP180;4218;48.326;14.304;2023-02-28T05:53:34;99024.00;;;-1.10
8362;BMP180;4218;48.326;14.304;2023-02-28T05:56:00;99031.00;;;-1.00
8362;BMP180;4218;48.326;14.304;2023-02-28T05:58:26;99022.00;;;-0.90
8362;BMP180;4218;48.326;14.304;2023-02-28T06:00:58;99034.00;;;-1.00
8362;BMP180;4218;48.326;14.304;2023-02-28T06:03:24;99027.00;;;-1.00
8362;BMP180;4218;48.326;14.304;2023-02-28T06:05:49;99017.00;;;-1.00
8362;BMP180;4218;48.326;14.304;2023-02-28T06:08:15;99029.00;;;-0.90
8362;BMP180;4218;48.326;14.304;2023-02-28T06:10:41;99017.00;;;-1.00
8362;BMP180;4218;48.326;14.304;2023-02-28T06:13:08;99031.00;;;-0.90
8362;BMP180;4218;48.326;14.304;2023-02-28T06:15:36;99028.00;;;-0.80
8362;BMP180;4218;48.326;14.304;2023-02-28T06:18:03;99041.00;;;-0.90
8362;BMP180;4218;48.326;14.304;2023-02-28T06:20:30;99016.00;;;-0.80
8362;BMP180;4218;48.326;14.304;2023-02-28T06:22:58;99041.00;;;-0.80
8362;BMP180;4218;48.326;14.304;2023-02-28T06:25:26;99035.00;;;-0.70
8362;BMP180;4218;48.326;14.304;2023-02-28T06:27:53;99041.00;;;-0.70
8362;BMP180;4218;48.326;14.304;2023-02-28T06:30:18;99047.00;;;-0.60
8362;BMP180;4218;48.326;14.304;2023-02-28T06:32:52;99040.00;;;-0.50
8362;BMP180;4218;48.326;14.304;2023-02-28T06:35:18;99054.00;;;-0.60
8362;BMP180;4218;48.326;14.304;2023-02-28T06:37:44;99051.00;;;-0.60
8362;BMP180;4218;48.326;14.304;2023-02-28T06:40:10;99052.00;;;-0.40
8362;BMP180;4218;48.326;14.304;2023-02-28T06:42:42;99056.00;;;-0.30
8362;BMP180;4218;48.326;14.304;2023-02-28T06:45:08;99053.00;;;-0.30
8362;BMP180;4218;48.326;14.304;2023-02-28T06:47:35;99071.00;;;-0.10
8362;BMP180;4218;48.326;14.304;2023-02-28T06:50:08;99056.00;;;-0.10
8362;BMP180;4218;48.326;14.304;2023-02-28T06:52:35;99048.00;;;0.10
8362;BMP180;4218;48.326;14.304;2023-02-28T06:55:05;99060.00;;;0.20
8362;BMP180;4218;48.326;14.304;2023-02-28T06:57:40;99042.00;;;0.30
8362;BMP180;4218;48.326;14.304;2023-02-28T07:00:09;99047.00;;;1.20
8362;BMP180;4218;48.326;14.304;2023-02-28T07:07:40;99066.00;;;3.90
8362;BMP180;4218;48.326;14.304;2023-02-28T07:10:12;99065.00;;;4.10
8362;BMP180;4218;48.326;14.304;2023-02-28T07:12:42;99070.00;;;4.50
8362;BMP180;4218;48.326;14.304;2023-02-28T07:15:09;99056.00;;;4.30
8362;BMP180;4218;48.326;14.304;2023-02-28T07:17:39;99064.00;;;3.80
8362;BMP180;4218;48.326;14.304;2023-02-28T07:20:10;99068.00;;;3.40
8362;BMP180;4218;48.326;14.304;2023-02-28T07:22:36;99066.00;;;3.30
8362;BMP180;4218;48.326;14.304;2023-02-28T07:25:04;99067.00;;;2.80
8362;BMP180;4218;48.326;14.304;2023-02-28T07:27:30;99066.00;;;2.50
8362;BMP180;4218;48.326;14.304;2023-02-28T07:29:57;99064.00;;;2.30
8362;BMP180;4218;48.326;14.304;2023-02-28T07:32:28;99080.00;;;2.00
8362;BMP180;4218;48.326;14.304;2023-02-28T07:34:54;99060.00;;;1.60
8362;BMP180;4218;48.326;14.304;2023-02-28T07:37:21;99079.00;;;1.40
8362;BMP180;4218;48.326;14.304;2023-02-28T07:39:47;99054.00;;;1.50
8362;BMP180;4218;48.326;14.304;2023-02-28T07:42:13;99058.00;;;1.90
8362;BMP180;4218;48.326;14.304;2023-02-28T07:44:41;99070.00;;;2.10
8362;BMP180;4218;48.326;14.304;2023-02-28T07:47:10;99089.00;;;1.80
8362;BMP180;4218;48.326;14.304;2023-02-28T07:49:36;99090.00;;;1.40
8362;BMP180;4218;48.326;14.304;2023-02-28T07:52:04;99097.00;;;1.40
8362;BMP180;4218;48.326;14.304;2023-02-28T07:54:41;99083.00;;;1.50
8362;BMP180;4218;48.326;14.304;2023-02-28T07:57:08;99057.00;;;1.50
8362;BMP180;4218;48.326;14.304;2023-02-28T09:06:40;99117.00;;;2.20
8362;BMP180;4218;48.326;14.304;2023-02-28T09:12:33;99125.00;;;2.50
8362;BMP180;4218;48.326;14.304;2023-02-28T09:14:58;99120.00;;;2.50
8362;BMP180;4218;48.326;14.304;2023-02-28T09:17:24;99115.00;;;2.40
8362;BMP180;4218;48.326;14.304;2023-02-28T09:19:49;99132.00;;;2.40
8362;BMP180;4218;48.326;14.304;2023-02-28T09:22:14;99131.00;;;2.40
8362;BMP180;4218;48.326;14.304;2023-02-28T09:24:44;99129.00;;;2.60
8362;BMP180;4218;48.326;14.304;2023-02-28T09:27:10;99131.00;;;2.70
8362;BMP180;4218;48.326;14.304;2023-02-28T09:29:35;99115.00;;;2.50
8362;BMP180;4218;48.326;14.304;2023-02-28T09:32:02;99137.00;;;2.70
8362;BMP180;4218;48.326;14.304;2023-02-28T09:34:33;99128.00;;;2.80
8362;BMP180;4218;48.326;14.304;2023-02-28T09:37:06;99110.00;;;3.00
8362;BMP180;4218;48.326;14.304;2023-02-28T09:39:38;99134.00;;;3.00
8362;BMP180;4218;48.326;14.304;2023-02-28T09:42:11;99142.00;;;3.10
8362;BMP180;4218;48.326;14.304;2023-02-28T09:44:51;99137.00;;;3.00
8362;BMP180;4218;48.326;14.304;2023-02-28T09:47:41;99145.00;;;3.10
8362;BMP180;4218;48.326;14.304;2023-02-28T09:56:37;99146.00;;;3.20
8362;BMP180;4218;48.326;14.304;2023-02-28T10:02:05;99154.00;;;3.90
8362;BMP180;4218;48.326;14.304;2023-02-28T10:04:56;99138.00;;;3.80
8362;BMP180;4218;48.326;14.304;2023-02-28T10:08:17;99156.00;;;3.90
8362;BMP180;4218;48.326;14.304;2023-02-28T10:11:02;99139.00;;;3.80
8362;BMP180;4218;48.326;14.304;2023-02-28T10:16:01;99148.00;;;3.70
8362;BMP180;4218;48.326;14.304;2023-02-28T10:21:17;99160.00;;;3.90
8362;BMP180;4218;48.326;14.304;2023-02-28T10:23:45;99154.00;;;3.90
8362;BMP180;4218;48.326;14.304;2023-02-28T10:26:16;99154.00;;;3.90
8362;BMP180;4218;48.326;14.304;2023-02-28T10:28:47;99155.00;;;4.10
8362;BMP180;4218;48.326;14.304;2023-02-28T10:33:50;99130.00;;;4.10
8362;BMP180;4218;48.326;14.304;2023-02-28T10:36:26;99150.00;;;4.10
8362;BMP180;4218;48.326;14.304;2023-02-28T10:38:53;99122.00;;;4.10
8362;BMP180;4218;48.326;14.304;2023-02-28T10:41:42;99133.00;;;4.30
8362;BMP180;4218;48.326;14.304;2023-02-28T10:44:23;99143.00;;;4.30
8362;BMP180;4218;48.326;14.304;2023-02-28T10:46:49;99142.00;;;4.40
8362;BMP180;4218;48.326;14.304;2023-02-28T10:49:21;99113.00;;;4.70
8362;BMP180;4218;48.326;14.304;2023-02-28T10:51:52;99137.00;;;4.80
8362;BMP180;4218;48.326;14.304;2023-02-28T10:54:21;99131.00;;;4.90
8362;BMP180;4218;48.326;14.304;2023-02-28T10:59:41;99130.00;;;5.20
8362;BMP180;4218;48.326;14.304;2023-02-28T11:04:59;99116.00;;;5.00
8362;BMP180;4218;48.326;14.304;2023-02-28T11:07:26;99121.00;;;5.10
8362;BMP180;4218;48.326;14.304;2023-02-28T11:09:57;99116.00;;;5.20
8362;BMP180;4218;48.326;14.304;2023-02-28T11:12:39;99109.00;;;5.00
8362;BMP180;4218;48.326;14.304;2023-02-28T11:15:24;99127.00;;;4.90
8362;BMP180;4218;48.326;14.304;2023-02-28T11:18:00;99123.00;;;4.90
8362;BMP180;4218;48.326;14.304;2023-02-28T11:20:29;99105.00;;;5.00
8362;BMP180;4218;48.326;14.304;2023-02-28T11:22:56;99094.00;;;4.90
8362;BMP180;4218;48.326;14.304;2023-02-28T11:25:25;99093.00;;;5.00
8362;BMP180;4218;48.326;14.304;2023-02-28T11:27:58;99115.00;;;5.10
8362;BMP180;4218;48.326;14.304;2023-02-28T11:30:39;99097.00;;;5.10
8362;BMP180;4218;48.326;14.304;2023-02-28T11:33:29;99106.00;;;5.30
8362;BMP180;4218;48.326;14.304;2023-02-28T11:36:08;99095.00;;;5.50
8362;BMP180;4218;48.326;14.304;2023-02-28T11:38:37;99090.00;;;5.50
8362;BMP180;4218;48.326;14.304;2023-02-28T11:44:42;99098.00;;;5.40
8362;BMP180;4218;48.326;14.304;2023-02-28T11:50:31;99097.00;;;5.70
8362;BMP180;4218;48.326;14.304;2023-02-28T11:53:25;99089.00;;;5.50
8362;BMP180;4218;48.326;14.304;2023-02-28T11:56:03;99085.00;;;5.80
8362;BMP180;4218;48.326;14.304;2023-02-28T11:58:37;99091.00;;;6.00
8362;BMP180;4218;48.326;14.304;2023-02-28T12:04:25;99078.00;;;6.10
8362;BMP180;4218;48.326;14.304;2023-02-28T12:07:15;99092.00;;;6.10
8362;BMP180;4218;48.326;14.304;2023-02-28T12:09:58;99089.00;;;6.10
8362;BMP180;4218;48.326;14.304;2023-02-28T12:12:38;99087.00;;;6.00
8362;BMP180;4218;48.326;14.304;2023-02-28T12:24:48;99081.00;;;6.60
8362;BMP180;4218;48.326;14.304;2023-02-28T12:28:00;99079.00;;;7.10
8362;BMP180;4218;48.326;14.304;2023-02-28T12:34:12;99092.00;;;6.90
8362;BMP180;4218;48.326;14.304;2023-02-28T12:36:44;99067.00;;;6.90
8362;BMP180;4218;48.326;14.304;2023-02-28T12:39:54;99083.00;;;6.90
8362;BMP180;4218;48.326;14.304;2023-02-28T12:43:25;99079.00;;;6.70
8362;BMP180;4218;48.326;14.304;2023-02-28T12:47:09;99075.00;;;6.80
8362;BMP180;4218;48.326;14.304;2023-02-28T12:50:15;99061.00;;;6.60
8362;BMP180;4218;48.326;14.304;2023-02-28T12:52:56;99085.00;;;6.30
8362;BMP180;4218;48.326;14.304;2023-02-28T12:55:36;99076.00;;;6.30
8362;BMP180;4218;48.326;14.304;2023-02-28T13:01:05;99082.00;;;6.20
8362;BMP180;4218;48.326;14.304;2023-02-28T13:06:41;99078.00;;;6.10
8362;BMP180;4218;48.326;14.304;2023-02-28T13:09:16;99078.00;;;6.20
8362;BMP180;4218;48.326;14.304;2023-02-28T13:11:56;99084.00;;;6.20
8362;BMP180;4218;48.326;14.304;2023-02-28T13:14:36;99081.00;;;6.00
8362;BMP180;4218;48.326;14.304;2023-02-28T13:17:03;99071.00;;;5.90
8362;BMP180;4218;48.326;14.304;2023-02-28T13:19:44;99068.00;;;6.10
8362;BMP180;4218;48.326;14.304;2023-02-28T13:24:55;99072.00;;;6.00
8362;BMP180;4218;48.326;14.304;2023-02-28T13:27:32;99077.00;;;5.90
8362;BMP180;4218;48.326;14.304;2023-02-28T13:29:59;99077.00;;;6.10
8362;BMP180;4218;48.326;14.304;2023-02-28T13:35:12;99083.00;;;6.20
8362;BMP180;4218;48.326;14.304;2023-02-28T13:37:37;99076.00;;;5.90
8362;BMP180;4218;48.326;14.304;2023-02-28T13:42:48;99076.00;;;6.10
8362;BMP180;4218;48.326;14.304;2023-02-28T13:45:26;99080.00;;;6.20
8362;BMP180;4218;48.326;14.304;2023-02-28T13:48:00;99084.00;;;6.20
8362;BMP180;4218;48.326;14.304;2023-02-28T13:53:01;99075.00;;;6.00
8362;BMP180;4218;48.326;14.304;2023-02-28T14:07:17;99081.00;;;5.50
8362;BMP180;4218;48.326;14.304;2023-02-28T14:09:51;99079.00;;;5.70
8362;BMP180;4218;48.326;14.304;2023-02-28T14:12:56;99085.00;;;5.80
8362;BMP180;4218;48.326;14.304;2023-02-28T14:15:41;99081.00;;;5.60
8362;BMP180;4218;48.326;14.304;2023-02-28T14:18:22;99089.00;;;5.50
8362;BMP180;4218;48.326;14.304;2023-02-28T14:20:49;99083.00;;;5.70
8362;BMP180;4218;48.326;14.304;2023-02-28T14:25:54;99085.00;;;5.80
8362;BMP180;4218;48.326;14.304;2023-02-28T14:31:22;99094.00;;;5.90
8362;BMP180;4218;48.326;14.304;2023-02-28T14:34:10;99079.00;;;5.80
8362;BMP180;4218;48.326;14.304;2023-02-28T14:36:42;99080.00;;;5.80
8362;BMP180;4218;48.326;14.304;2023-02-28T14:39:22;99080.00;;;5.80
8362;BMP180;4218;48.326;14.304;2023-02-28T14:41:53;99086.00;;;5.90
8362;BMP180;4218;48.326;14.304;2023-02-28T14:44:31;99077.00;;;5.80
8362;BMP180;4218;48.326;14.304;2023-02-28T14:47:01;99074.00;;;5.70
8362;BMP180;4218;48.326;14.304;2023-02-28T14:49:42;99093.00;;;5.60
8362;BMP180;4218;48.326;14.304;2023-02-28T14:52:22;99082.00;;;5.40
8362;BMP180;4218;48.326;14.304;2023-02-28T14:55:09;99089.00;;;5.20
8362;BMP180;4218;48.326;14.304;2023-02-28T14:57:50;99097.00;;;5.20
8362;BMP180;4218;48.326;14.304;2023-02-28T15:00:28;99093.00;;;5.20
8362;BMP180;4218;48.326;14.304;2023-02-28T15:03:33;99100.00;;;5.30
8362;BMP180;4218;48.326;14.304;2023-02-28T15:06:01;99111.00;;;5.30
8362;BMP180;4218;48.326;14.304;2023-02-28T15:08:30;99114.00;;;5.20
8362;BMP180;4218;48.326;14.304;2023-02-28T15:11:09;99100.00;;;5.20
8362;BMP180;4218;48.326;14.304;2023-02-28T15:13:53;99109.00;;;5.10
8362;BMP180;4218;48.326;14.304;2023-02-28T15:16:30;99115.00;;;5.10
8362;BMP180;4218;48.326;14.304;2023-02-28T15:18:59;99113.00;;;5.10
8362;BMP180;4218;48.326;14.304;2023-02-28T15:21:36;99117.00;;;5.20
8362;BMP180;4218;48.326;14.304;2023-02-28T15:24:10;99124.00;;;5.10
8362;BMP180;4218;48.326;14.304;2023-02-28T15:26:54;99123.00;;;5.10
8362;BMP180;4218;48.326;14.304;2023-02-28T15:29:33;99132.00;;;5.00
8362;BMP180;4218;48.326;14.304;2023-02-28T15:32:04;99132.00;;;5.00
8362;BMP180;4218;48.326;14.304;2023-02-28T15:34:41;99123.00;;;4.90
8362;BMP180;4218;48.326;14.304;2023-02-28T15:39:56;99122.00;;;4.80
8362;BMP180;4218;48.326;14.304;2023-02-28T15:42:30;99133.00;;;4.80
8362;BMP180;4218;48.326;14.304;2023-02-28T15:44:56;99132.00;;;4.80
8362;BMP180;4218;48.326;14.304;2023-02-28T15:47:25;99131.00;;;4.70
8362;BMP180;4218;48.326;14.304;2023-02-28T15:49:53;99128.00;;;4.70
8362;BMP180;4218;48.326;14.304;2023-02-28T15:52:29;99125.00;;;4.50
8362;BMP180;4218;48.326;14.304;2023-02-28T15:54:58;99124.00;;;4.60
8362;BMP180;4218;48.326;14.304;2023-02-28T15:57:28;99131.00;;;4.50
8362;BMP180;4218;48.326;14.304;2023-02-28T16:00:00;99131.00;;;4.60
8362;BMP180;4218;48.326;14.304;2023-02-28T16:02:47;99133.00;;;4.50
8362;BMP180;4218;48.326;14.304;2023-02-28T16:07:44;99138.00;;;4.20
8362;BMP180;4218;48.326;14.304;2023-02-28T16:10:12;99132.00;;;4.20
8362;BMP180;4218;48.326;14.304;2023-02-28T16:12:45;99136.00;;;4.20
8362;BMP180;4218;48.326;14.304;2023-02-28T16:17:48;99136.00;;;4.10
8362;BMP180;4218;48.326;14.304;2023-02-28T16:20:16;99128.00;;;4.10
8362;BMP180;4218;48.326;14.304;2023-02-28T16:22:47;99137.00;;;4.10
8362;BMP180;4218;48.326;14.304;2023-02-28T16:25:14;99142.00;;;4.10
8362;BMP180;4218;48.326;14.304;2023-02-28T16:27:45;99137.00;;;3.90
8362;BMP180;4218;48.326;14.304;2023-02-28T16:30:25;99144.00;;;4.10
8362;BMP180;4218;48.326;14.304;2023-02-28T16:32:52;99144.00;;;4.10
8362;BMP180;4218;48.326;14.304;2023-02-28T16:35:18;99145.00;;;3.90
8362;BMP180;4218;48.326;14.304;2023-02-28T16:37:44;99147.00;;;4.00
8362;BMP180;4218;48.326;14.304;2023-02-28T16:40:22;99152.00;;;4.10
8362;BMP180;4218;48.326;14.304;2023-02-28T16:42:53;99148.00;;;4.00
8362;BMP180;4218;48.326;14.304;2023-02-28T16:45:26;99160.00;;;3.90
8362;BMP180;4218;48.326;14.304;2023-02-28T16:47:57;99158.00;;;4.00
8362;BMP180;4218;48.326;14.304;2023-02-28T16:50:29;99155.00;;;3.90
8362;BMP180;4218;48.326;14.304;2023-02-28T16:53:01;99158.00;;;4.00
8362;BMP180;4218;48.326;14.304;2023-02-28T16:55:26;99157.00;;;4.00
8362;BMP180;4218;48.326;14.304;2023-02-28T16:57:59;99155.00;;;3.90
8362;BMP180;4218;48.326;14.304;2023-02-28T17:00:26;99163.00;;;3.90
8362;BMP180;4218;48.326;14.304;2023-02-28T17:02:54;99163.00;;;3.90
8362;BMP180;4218;48.326;14.304;2023-02-28T17:05:20;99164.00;;;3.80
8362;BMP180;4218;48.326;14.304;2023-02-28T17:07:47;99164.00;;;3.90
8362;BMP180;4218;48.326;14.304;2023-02-28T17:10:24;99179.00;;;3.70
8362;BMP180;4218;48.326;14.304;2023-02-28T17:12:50;99169.00;;;3.90
8362;BMP180;4218;48.326;14.304;2023-02-28T17:15:17;99185.00;;;3.90
8362;BMP180;4218;48.326;14.304;2023-02-28T17:17:44;99188.00;;;3.90
8362;BMP180;4218;48.326;14.304;2023-02-28T17:20:14;99194.00;;;3.80
8362;BMP180;4218;48.326;14.304;2023-02-28T17:22:40;99187.00;;;3.80
8362;BMP180;4218;48.326;14.304;2023-02-28T17:25:16;99194.00;;;4.00
8362;BMP180;4218;48.326;14.304;2023-02-28T17:27:42;99190.00;;;3.80
8362;BMP180;4218;48.326;14.304;2023-02-28T17:30:14;99190.00;;;3.80
8362;BMP180;4218;48.326;14.304;2023-02-28T17:32:40;99185.00;;;3.70
8362;BMP180;4218;48.326;14.304;2023-02-28T17:35:06;99193.00;;;3.80
8362;BMP180;4218;48.326;14.304;2023-02-28T17:37:32;99192.00;;;3.70
8362;BMP180;4218;48.326;14.304;2023-02-28T17:39:57;99205.00;;;3.90
8362;BMP180;4218;48.326;14.304;2023-02-28T17:42:23;99196.00;;;3.90
8362;BMP180;4218;48.326;14.304;2023-02-28T17:44:48;99197.00;;;3.80
8362;BMP180;4218;48.326;14.304;2023-02-28T17:47:14;99197.00;;;3.70
8362;BMP180;4218;48.326;14.304;2023-02-28T17:49:39;99200.00;;;3.80
8362;BMP180;4218;48.326;14.304;2023-02-28T17:52:05;99199.00;;;3.80
8362;BMP180;4218;48.326;14.304;2023-02-28T17:54:30;99209.00;;;3.80
8362;BMP180;4218;48.326;14.304;2023-02-28T17:56:56;99207.00;;;3.80
8362;BMP180;4218;48.326;14.304;2023-02-28T17:59:21;99204.00;;;3.80
8362;BMP180;4218;48.326;14.304;2023-02-28T18:01:47;99210.00;;;3.70
8362;BMP180;4218;48.326;14.304;2023-02-28T18:04:12;99206.00;;;3.70
8362;BMP180;4218;48.326;14.304;2023-02-28T18:06:43;99198.00;;;3.70
8362;BMP180;4218;48.326;14.304;2023-02-28T18:09:18;99197.00;;;3.70
8362;BMP180;4218;48.326;14.304;2023-02-28T18:11:43;99215.00;;;3.80
8362;BMP180;4218;48.326;14.304;2023-02-28T18:14:14;99199.00;;;3.70
8362;BMP180;4218;48.326;14.304;2023-02-28T18:16:39;99205.00;;;3.70
8362;BMP180;4218;48.326;14.304;2023-02-28T18:19:05;99207.00;;;3.70
8362;BMP180;4218;48.326;14.304;2023-02-28T18:21:31;99208.00;;;3.60
8362;BMP180;4218;48.326;14.304;2023-02-28T18:23:57;99207.00;;;3.60
8362;BMP180;4218;48.326;14.304;2023-02-28T18:26:22;99201.00;;;3.60
8362;BMP180;4218;48.326;14.304;2023-02-28T18:28:48;99204.00;;;3.60
8362;BMP180;4218;48.326;14.304;2023-02-28T18:31:17;99213.00;;;3.60
8362;BMP180;4218;48.326;14.304;2023-02-28T18:33:44;99217.00;;;3.60
8362;BMP180;4218;48.326;14.304;2023-02-28T18:36:12;99212.00;;;3.60
8362;BMP180;4218;48.326;14.304;2023-02-28T18:38:38;99209.00;;;3.50
8362;BMP180;4218;48.326;14.304;2023-02-28T18:41:05;99216.00;;;3.60
8362;BMP180;4218;48.326;14.304;2023-02-28T18:43:32;99217.00;;;3.60
8362;BMP180;4218;48.326;14.304;2023-02-28T18:46:12;99215.00;;;3.60
8362;BMP180;4218;48.326;14.304;2023-02-28T18:48:38;99216.00;;;3.50
8362;BMP180;4218;48.326;14.304;2023-02-28T18:51:17;99214.00;;;3.50
8362;BMP180;4218;48.326;14.304;2023-02-28T18:53:44;99197.00;;;3.50
8362;BMP180;4218;48.326;14.304;2023-02-28T18:56:12;99215.00;;;3.50
8362;BMP180;4218;48.326;14.304;2023-02-28T18:58:38;99221.00;;;3.50
8362;BMP180;4218;48.326;14.304;2023-02-28T19:01:15;99210.00;;;3.50
8362;BMP180;4218;48.326;14.304;2023-02-28T19:03:42;99210.00;;;3.50
8362;BMP180;4218;48.326;14.304;2023-02-28T19:06:08;99213.00;;;3.50
8362;BMP180;4218;48.326;14.304;2023-02-28T19:08:34;99213.00;;;3.40